Time;durP1;ratioP1;P1;durP2;ratioP2;P2;SDS_P1;SDS_P2;PMS_P1;PMS_P2;Temp;Humidity;BMP_temperature;BMP_pressure;BME280_temperature;BME280_humidity;BME280_pressure;Samples;Min_cycle;Max_cycle;Signal;HPM_P1;HPM_P2
2021/10/30 00:00:03;;;;;;;;;;;;;;;6.09;91.51;98844.97;4967606;28;19922;-87
2021/10/30 00:02:29;;;;;;;;;;;;;;;6.12;91.93;98833.47;4953736;28;20749;-88
2021/10/30 00:04:54;;;;;;;;;;;;;;;6.12;91.75;98828.22;4966078;28;20012;-87
2021/10/30 00:07:20;;;;;;;;;;;;;;;6.13;91.78;98822.06;4970379;28;19937;-86
2021/10/30 00:09:45;;;;;;;;;;;;;;;6.14;91.68;98819.34;4954427;28;19930;-88
2021/10/30 00:12:11;;;;;;;;;;;;;;;6.18;91.52;98820.09;4969973;28;19929;-86
2021/10/30 00:14:37;;;;;;;;;;;;;;;6.17;91.41;98816.59;4970303;28;19948;-87
2021/10/30 00:17:02;;;;;;;;;;;;;;;6.18;91.13;98820.09;4954903;28;19926;-88
2021/10/30 00:19:27;;;;;;;;;;;;;;;6.19;91.21;98816.53;4969277;28;19969;-89
2021/10/30 00:21:53;;;;;;;;;;;;;;;6.20;91.03;98825.28;4972607;28;19929;-88
2021/10/30 00:24:19;;;;;;;;;;;;;;;6.20;91.07;98823.50;4970780;28;19973;-89
2021/10/30 00:26:44;;;;;;;;;;;;;;;6.20;91.11;98818.25;4956355;28;19926;-86
2021/10/30 00:29:09;;;;;;;;;;;;;;;6.36;92.75;98821.09;4970603;28;19922;-87
2021/10/30 00:31:34;;;;;;;;;;;;;;;6.34;94.19;98823.78;4971610;28;19984;-88
2021/10/30 00:34:00;;;;;;;;;;;;;;;6.34;94.90;98823.78;4971700;28;19922;-86
2021/10/30 00:36:25;;;;;;;;;;;;;;;5.07;91.17;98825.09;4975098;28;19922;-87
2021/10/30 00:38:53;;;;;;;;;;;;;;;4.55;90.40;98824.28;4969459;28;20305;-89
2021/10/30 00:41:18;;;;;;;;;;;;;;;4.19;90.27;98820.19;4958237;28;19966;-84
2021/10/30 02:24:38;;;;;;;;;;;;;;;6.91;100.00;98728.41;4979597;28;20415;-82
2021/10/30 02:27:04;;;;;;;;;;;;;;;6.89;100.00;98723.19;4983407;28;19922;-82
2021/10/30 02:29:29;;;;;;;;;;;;;;;6.90;100.00;98718.78;4983245;28;20012;-83
2021/10/30 02:31:54;;;;;;;;;;;;;;;6.94;100.00;98717.72;4983556;28;20350;-82
2021/10/30 02:34:20;;;;;;;;;;;;;;;6.94;100.00;98707.19;4983205;28;19926;-83
2021/10/30 02:36:45;;;;;;;;;;;;;;;6.98;100.00;98703.47;4982315;28;19928;-83
2021/10/30 02:39:11;;;;;;;;;;;;;;;7.06;100.00;98703.97;4983255;28;20408;-83
2021/10/30 02:41:36;;;;;;;;;;;;;;;7.13;100.00;98703.72;4983292;28;19922;-83
2021/10/30 02:44:02;;;;;;;;;;;;;;;7.15;100.00;98700.09;4983382;28;19925;-83
2021/10/30 02:46:28;;;;;;;;;;;;;;;7.17;100.00;98692.97;4983064;28;19922;-83
2021/10/30 02:48:53;;;;;;;;;;;;;;;7.20;100.00;98697.25;4982774;28;20292;-83
2021/10/30 02:51:18;;;;;;;;;;;;;;;7.21;100.00;98686.63;4981969;28;19937;-83
2021/10/30 02:53:44;;;;;;;;;;;;;;;7.25;100.00;98684.69;4983298;28;20337;-83
2021/10/30 02:56:09;;;;;;;;;;;;;;;7.26;100.00;98675.88;4982786;28;19918;-83
2021/10/30 02:58:34;;;;;;;;;;;;;;;7.29;100.00;98665.16;4965559;28;19961;-82
2021/10/30 03:00:59;;;;;;;;;;;;;;;7.31;100.00;98658.06;4982777;28;19981;-82
2021/10/30 03:03:25;;;;;;;;;;;;;;;7.32;100.00;98658.91;4965446;28;19922;-83
2021/10/30 03:05:50;;;;;;;;;;;;;;;7.32;100.00;98654.47;4983346;28;19961;-82
2021/10/30 03:08:15;;;;;;;;;;;;;;;7.33;100.00;98661.47;4981951;28;19918;-82
2021/10/30 03:10:41;;;;;;;;;;;;;;;7.35;100.00;98656.97;4982724;28;19953;-81
2021/10/30 03:13:07;;;;;;;;;;;;;;;7.37;100.00;98641.09;4973570;28;19922;-81
2021/10/30 03:15:32;;;;;;;;;;;;;;;7.38;100.00;98641.03;4983349;28;19922;-81
2021/10/30 03:17:57;;;;;;;;;;;;;;;7.39;100.00;98645.38;4982589;28;20263;-81
2021/10/30 03:20:22;;;;;;;;;;;;;;;7.41;100.00;98643.50;4982325;28;19964;-82
2021/10/30 03:22:48;;;;;;;;;;;;;;;7.43;100.00;98635.53;4981304;28;19969;-82
2021/10/30 03:25:13;;;;;;;;;;;;;;;7.52;100.00;98628.97;4982282;28;19957;-81
2021/10/30 03:27:38;;;;;;;;;;;;;;;7.84;100.00;98629.16;4982812;28;19918;-82
2021/10/30 03:30:05;;;;;;;;;;;;;;;7.97;100.00;98622.34;4982957;28;20525;-82
2021/10/30 03:32:30;;;;;;;;;;;;;;;7.95;100.00;98619.78;4981810;28;19985;-82
2021/10/30 03:34:55;;;;;;;;;;;;;;;8.00;100.00;98620.38;4982511;28;20411;-82
2021/10/30 03:37:21;;;;;;;;;;;;;;;8.14;100.00;98617.06;4981415;28;19953;-82
2021/10/30 03:39:46;;;;;;;;;;;;;;;8.23;100.00;98610.44;4982830;28;19922;-82
2021/10/30 03:42:11;;;;;;;;;;;;;;;8.24;100.00;98611.31;4982359;28;20373;-82
2021/10/30 03:44:37;;;;;;;;;;;;;;;8.17;100.00;98605.50;4982371;28;19922;-82
2021/10/30 03:47:02;;;;;;;;;;;;;;;8.12;100.00;98612.78;4982798;28;19918;-82
2021/10/30 03:49:27;;;;;;;;;;;;;;;8.06;100.00;98611.31;4982501;28;19922;-82
2021/10/30 03:51:52;;;;;;;;;;;;;;;7.66;100.00;98615.97;4963589;28;19925;-82
2021/10/30 03:54:18;;;;;;;;;;;;;;;6.10;100.00;98606.50;4982267;28;19922;-82
2021/10/30 03:56:43;;;;;;;;;;;;;;;5.38;100.00;98610.34;4982940;28;19921;-82
2021/10/30 03:59:08;;;;;;;;;;;;;;;5.11;100.00;98613.16;4982810;28;19922;-81
2021/10/30 04:01:34;;;;;;;;;;;;;;;4.83;100.00;98606.31;4983322;28;19914;-82
2021/10/30 04:03:59;;;;;;;;;;;;;;;4.67;100.00;98599.94;4985964;28;20250;-82
2021/10/30 04:06:24;;;;;;;;;;;;;;;4.54;100.00;98596.94;4985115;28;19922;-82
2021/10/30 04:08:50;;;;;;;;;;;;;;;4.36;100.00;98601.94;4986327;28;19997;-82
2021/10/30 04:11:15;;;;;;;;;;;;;;;4.28;100.00;98611.00;4985704;28;20370;-82
2021/10/30 04:13:40;;;;;;;;;;;;;;;4.12;100.00;98601.06;4986010;28;19917;-82
2021/10/30 04:16:06;;;;;;;;;;;;;;;4.04;100.00;98602.22;4986551;28;19918;-82
2021/10/30 04:18:31;;;;;;;;;;;;;;;3.92;100.00;98593.03;4985869;28;19922;-82
2021/10/30 04:20:58;;;;;;;;;;;;;;;3.90;100.00;98594.88;4984802;28;20203;-82
2021/10/30 04:23:23;;;;;;;;;;;;;;;3.80;100.00;98612.69;4984887;28;19945;-82
2021/10/30 04:25:48;;;;;;;;;;;;;;;3.78;100.00;98607.50;4985917;28;19922;-82
2021/10/30 04:28:14;;;;;;;;;;;;;;;3.72;100.00;98605.06;4985731;28;19929;-82
2021/10/30 04:30:39;;;;;;;;;;;;;;;3.71;100.00;98602.50;4984981;28;19927;-82
2021/10/30 04:33:05;;;;;;;;;;;;;;;3.60;100.00;98602.84;4985738;28;19918;-82
2021/10/30 04:35:31;;;;;;;;;;;;;;;3.63;100.00;98592.28;4985430;28;19931;-82
2021/10/30 07:45:11;;;;;;;;;;;;;;;2.47;100.00;98580.19;5629740;23;20288;-81
2021/10/30 07:47:37;;;;;;;;;;;;;;;2.53;100.00;98566.91;5003782;28;19922;-81
2021/10/30 07:50:03;;;;;;;;;;;;;;;2.62;100.00;98571.03;5005822;28;19918;-81
2021/10/30 07:52:28;;;;;;;;;;;;;;;2.68;100.00;98572.59;5005963;28;19964;-82
2021/10/30 07:54:54;;;;;;;;;;;;;;;2.75;100.00;98554.97;5006189;28;20414;-81
2021/10/30 07:57:19;;;;;;;;;;;;;;;2.78;100.00;98562.72;5006046;28;19925;-82
2021/10/30 07:59:45;;;;;;;;;;;;;;;2.79;100.00;98562.66;5004200;28;19971;-82
2021/10/30 08:02:11;;;;;;;;;;;;;;;2.82;100.00;98554.72;5006023;28;20326;-82
2021/10/30 08:04:36;;;;;;;;;;;;;;;2.89;100.00;98555.41;5005592;28;19933;-82
2021/10/30 08:07:02;;;;;;;;;;;;;;;2.99;100.00;98543.72;5005478;28;20032;-81
2021/10/30 08:09:28;;;;;;;;;;;;;;;3.05;100.00;98542.69;5005555;28;20380;-81
2021/10/30 08:11:53;;;;;;;;;;;;;;;3.12;100.00;98522.41;5005995;28;19917;-81
2021/10/30 08:14:18;;;;;;;;;;;;;;;3.14;100.00;98525.81;5004150;28;19930;-82
2021/10/30 08:16:44;;;;;;;;;;;;;;;3.14;100.00;98541.53;5005143;28;19922;-81
2021/10/30 08:19:09;;;;;;;;;;;;;;;3.18;100.00;98544.00;5005714;28;19921;-82
2021/10/30 08:21:35;;;;;;;;;;;;;;;3.23;100.00;98530.75;5005747;28;20373;-82
2021/10/30 08:24:01;;;;;;;;;;;;;;;3.24;100.00;98542.94;5003974;28;19990;-82
2021/10/30 08:26:26;;;;;;;;;;;;;;;3.22;100.00;98552.59;5004316;28;20374;-81
2021/10/30 08:28:51;;;;;;;;;;;;;;;3.28;100.00;98555.84;5005132;28;19995;-82
2021/10/30 08:31:16;;;;;;;;;;;;;;;3.33;100.00;98547.00;5002759;28;19983;-81
2021/10/30 08:33:42;;;;;;;;;;;;;;;3.33;100.00;98529.53;5005337;28;20361;-81
2021/10/30 08:36:08;;;;;;;;;;;;;;;3.37;100.00;98538.16;5005541;28;19975;-81
2021/10/30 08:38:34;;;;;;;;;;;;;;;3.40;100.00;98544.16;5003554;28;20004;-81
2021/10/30 08:41:01;;;;;;;;;;;;;;;3.43;100.00;98535.31;5005354;28;20008;-81
2021/10/30 08:43:26;;;;;;;;;;;;;;;3.48;100.00;98535.16;5004552;28;19941;-81
2021/10/30 08:45:52;;;;;;;;;;;;;;;3.51;100.00;98530.69;5003457;28;20369;-81
2021/10/30 08:48:18;;;;;;;;;;;;;;;3.54;100.00;98524.47;5004582;28;20570;-81
2021/10/30 08:50:43;;;;;;;;;;;;;;;3.58;100.00;98526.09;5005036;28;20349;-81
2021/10/30 08:53:09;;;;;;;;;;;;;;;3.60;100.00;98511.16;5005071;28;19921;-82
2021/10/30 08:55:34;;;;;;;;;;;;;;;3.63;100.00;98501.44;5004373;28;19917;-80
2021/10/30 08:58:03;;;;;;;;;;;;;;;3.64;100.00;98499.69;5004633;28;19968;-81
2021/10/30 09:00:29;;;;;;;;;;;;;;;3.69;100.00;98482.03;5003610;28;19921;-81
2021/10/30 09:02:55;;;;;;;;;;;;;;;3.71;100.00;98480.22;5004795;28;19918;-81
2021/10/30 09:05:23;;;;;;;;;;;;;;;3.72;100.00;98479.31;5004366;28;19975;-82
2021/10/30 09:07:50;;;;;;;;;;;;;;;3.76;100.00;98478.28;5006058;28;19925;-82
2021/10/30 09:10:20;;;;;;;;;;;;;;;3.79;100.00;98477.31;5004789;28;19918;-81
2021/10/30 09:12:50;;;;;;;;;;;;;;;3.81;100.00;98475.50;5004207;28;19990;-81
2021/10/30 09:15:19;;;;;;;;;;;;;;;3.87;100.00;98474.44;5002882;28;19917;-81
2021/10/30 09:17:45;;;;;;;;;;;;;;;3.89;100.00;98468.19;5004529;28;19933;-82
2021/10/30 09:20:12;;;;;;;;;;;;;;;3.93;100.00;98461.94;5003546;28;19942;-81
2021/10/30 09:22:37;;;;;;;;;;;;;;;3.97;100.00;98457.44;5004135;28;19976;-82
2021/10/30 09:25:06;;;;;;;;;;;;;;;4.03;100.00;98459.00;5003744;28;20372;-81
2021/10/30 09:27:48;;;;;;;;;;;;;;;4.03;100.00;98467.69;5004267;28;19918;-81
2021/10/30 09:30:17;;;;;;;;;;;;;;;4.06;100.00;98464.97;5002737;28;19918;-82
2021/10/30 09:33:02;;;;;;;;;;;;;;;4.09;100.00;98464.84;5003911;28;19918;-82
2021/10/30 09:35:28;;;;;;;;;;;;;;;4.12;100.00;98464.75;5004205;28;19921;-81
2021/10/30 09:37:53;;;;;;;;;;;;;;;4.14;100.00;98462.91;5002877;28;19933;-82
2021/10/30 09:40:28;;;;;;;;;;;;;;;4.18;100.00;98456.66;5003890;28;19922;-81
2021/10/30 09:43:13;;;;;;;;;;;;;;;4.21;100.00;98453.03;5003793;28;20366;-82
2021/10/30 09:45:39;;;;;;;;;;;;;;;4.24;100.00;98458.16;5001940;28;19930;-81
2021/10/30 09:48:04;;;;;;;;;;;;;;;4.25;100.00;98453.78;5003517;28;19965;-81
2021/10/30 09:50:32;;;;;;;;;;;;;;;4.33;100.00;98452.56;5003601;28;19972;-81
2021/10/30 09:52:57;;;;;;;;;;;;;;;4.34;100.00;98453.41;5003417;28;19953;-82
2021/10/30 09:55:26;;;;;;;;;;;;;;;4.38;100.00;98460.25;5002897;28;20347;-81
2021/10/30 09:57:58;;;;;;;;;;;;;;;4.44;100.00;98461.81;5003406;28;20462;-81
2021/10/30 10:00:24;;;;;;;;;;;;;;;4.49;100.00;98465.94;5000905;28;19928;-81
2021/10/30 10:02:51;;;;;;;;;;;;;;;4.51;100.00;98460.63;5003514;28;19925;-85
2021/10/30 10:05:19;;;;;;;;;;;;;;;4.51;100.00;98466.72;5003989;28;19917;-84
2021/10/30 10:07:47;;;;;;;;;;;;;;;4.57;100.00;98470.03;5003272;28;19926;-84
2021/10/30 10:10:12;;;;;;;;;;;;;;;4.62;100.00;98473.34;5003161;28;20335;-84
2021/10/30 10:12:38;;;;;;;;;;;;;;;4.63;100.00;98469.81;5003280;28;20004;-84
2021/10/30 10:15:04;;;;;;;;;;;;;;;4.69;100.00;98469.53;5001868;28;20277;-84
2021/10/30 10:17:31;;;;;;;;;;;;;;;4.71;100.00;98468.56;5010366;28;19921;-85
2021/10/30 10:20:05;;;;;;;;;;;;;;;4.73;100.00;98461.47;5090238;27;19982;-85
2021/10/30 10:22:31;;;;;;;;;;;;;;;4.79;100.00;98463.03;5122140;28;20291;-85
2021/10/30 10:25:15;;;;;;;;;;;;;;;4.82;100.00;98464.66;5089339;28;19916;-85
2021/10/30 10:27:40;;;;;;;;;;;;;;;4.84;100.00;98466.31;5089126;28;19917;-85
2021/10/30 10:30:07;;;;;;;;;;;;;;;4.86;100.00;98480.22;5088055;28;19922;-85
2021/10/30 10:32:33;;;;;;;;;;;;;;;4.87;100.00;98471.44;5088009;28;19920;-85
2021/10/30 10:35:05;;;;;;;;;;;;;;;4.92;100.00;98471.25;5088908;28;19924;-85
2021/10/30 10:37:30;;;;;;;;;;;;;;;4.93;100.00;98482.59;5089110;28;19943;-85
2021/10/30 10:39:57;;;;;;;;;;;;;;;4.91;100.00;98494.03;5089069;28;19920;-85
2021/10/30 10:42:35;;;;;;;;;;;;;;;4.95;100.00;98497.38;5088865;28;20006;-85
2021/10/30 10:45:04;;;;;;;;;;;;;;;5.02;100.00;98475.19;5087756;28;19920;-85
2021/10/30 10:47:35;;;;;;;;;;;;;;;5.03;100.00;98463.78;5088993;28;19924;-86
2021/10/30 10:50:09;;;;;;;;;;;;;;;5.05;100.00;98467.19;5088854;28;19920;-85
2021/10/30 10:52:34;;;;;;;;;;;;;;;5.11;100.00;98462.63;5121643;28;19916;-85
2021/10/30 10:55:01;;;;;;;;;;;;;;;5.12;100.00;98459.91;5088878;28;20554;-85
2021/10/30 10:57:26;;;;;;;;;;;;;;;5.18;100.00;98456.19;5088828;28;19916;-85
2021/10/30 10:59:57;;;;;;;;;;;;;;;5.22;100.00;98452.53;5087254;28;19928;-85
2021/10/30 11:02:27;;;;;;;;;;;;;;;5.26;100.00;98446.22;5088566;28;19916;-85
2021/10/30 11:05:20;;;;;;;;;;;;;;;5.25;100.00;98440.13;5087278;28;20458;-85
2021/10/30 11:07:49;;;;;;;;;;;;;;;5.30;100.00;98444.28;5087185;28;20010;-84
2021/10/30 11:10:14;;;;;;;;;;;;;;;5.33;100.00;98452.06;5121343;28;19920;-85
2021/10/30 11:13:04;;;;;;;;;;;;;;;5.35;100.00;98451.06;5088452;28;20318;-85
2021/10/30 11:15:38;;;;;;;;;;;;;;;5.34;100.00;98446.72;5084652;28;19924;-85
2021/10/30 11:18:07;;;;;;;;;;;;;;;5.36;100.00;98439.66;5120454;28;19924;-85
2021/10/30 11:20:40;;;;;;;;;;;;;;;5.39;100.00;98450.03;5088448;28;19916;-86
2021/10/30 11:23:09;;;;;;;;;;;;;;;5.44;100.00;98442.81;5088126;28;19920;-84
2021/10/30 11:25:34;;;;;;;;;;;;;;;5.45;100.00;98435.75;5086645;28;19921;-85
2021/10/30 11:28:00;;;;;;;;;;;;;;;5.45;100.00;98433.97;5087952;28;19993;-85
2021/10/30 11:30:31;;;;;;;;;;;;;;;5.52;100.00;98444.22;5078789;28;19926;-84
2021/10/30 11:33:20;;;;;;;;;;;;;;;5.53;100.00;98451.19;5074727;28;20023;-85
2021/10/30 11:35:55;;;;;;;;;;;;;;;5.57;100.00;98448.38;5072381;28;19931;-86
2021/10/30 11:38:20;;;;;;;;;;;;;;;5.56;100.00;98462.44;5073986;28;19926;-85
2021/10/30 11:40:56;;;;;;;;;;;;;;;5.59;100.00;98458.81;5106929;28;20015;-85
2021/10/30 11:43:27;;;;;;;;;;;;;;;5.62;100.00;98463.94;5074111;28;19958;-85
2021/10/30 11:45:59;;;;;;;;;;;;;;;5.66;100.00;98462.03;5072859;28;19932;-85
2021/10/30 11:48:40;;;;;;;;;;;;;;;5.67;100.00;98459.34;5074332;28;20256;-85
2021/10/30 11:51:05;;;;;;;;;;;;;;;5.69;100.00;98461.91;5074094;28;19958;-85
2021/10/30 11:53:34;;;;;;;;;;;;;;;5.73;100.00;98451.19;5074672;28;19916;-85
2021/10/30 11:56:05;;;;;;;;;;;;;;;5.73;100.00;98452.97;5072920;28;19954;-85
2021/10/30 11:58:50;;;;;;;;;;;;;;;5.76;100.00;98442.28;5073466;28;19916;-85
2021/10/30 12:01:20;;;;;;;;;;;;;;;5.81;100.00;98445.59;5072887;28;19994;-84
2021/10/30 12:03:45;;;;;;;;;;;;;;;5.80;100.00;98430.72;5073891;28;19969;-85
2021/10/30 12:06:11;;;;;;;;;;;;;;;5.84;100.00;98440.19;5074093;28;19925;-86
2021/10/30 12:08:36;;;;;;;;;;;;;;;5.85;100.00;98428.75;5073278;28;20374;-85
2021/10/30 12:11:05;;;;;;;;;;;;;;;5.85;100.00;98426.13;5073934;28;19925;-85
2021/10/30 12:13:31;;;;;;;;;;;;;;;5.91;100.00;98433.72;5073092;28;20401;-85
2021/10/30 12:15:56;;;;;;;;;;;;;;;5.92;100.00;98424.94;5072977;28;20326;-85
2021/10/30 12:18:22;;;;;;;;;;;;;;;5.94;100.00;98436.22;5073435;28;19924;-85
2021/10/30 12:20:47;;;;;;;;;;;;;;;5.95;100.00;98431.81;5073601;28;19962;-85
2021/10/30 12:23:13;;;;;;;;;;;;;;;5.97;100.00;98430.84;5106410;28;19928;-85
2021/10/30 12:25:38;;;;;;;;;;;;;;;6.00;100.00;98430.72;5073238;28;19928;-85
2021/10/30 12:28:04;;;;;;;;;;;;;;;6.00;100.00;98425.47;5073409;28;19924;-85
2021/10/30 12:30:32;;;;;;;;;;;;;;;6.05;100.00;98437.53;5072153;28;20271;-85
2021/10/30 12:33:11;;;;;;;;;;;;;;;6.06;100.00;98428.72;5106046;28;20350;-85
2021/10/30 12:35:42;;;;;;;;;;;;;;;6.06;100.00;98424.31;5065020;28;19924;-85
2021/10/30 12:38:17;;;;;;;;;;;;;;;6.09;100.00;98423.31;5072818;28;19931;-85
2021/10/30 12:40:43;;;;;;;;;;;;;;;6.11;100.00;98421.47;5072332;28;19921;-86
2021/10/30 12:43:10;;;;;;;;;;;;;;;6.11;100.00;98414.44;5070805;28;19916;-85
2021/10/30 12:45:38;;;;;;;;;;;;;;;6.12;100.00;98415.28;5071457;28;19980;-85
2021/10/30 12:48:13;;;;;;;;;;;;;;;6.12;100.00;98404.78;5072423;28;20374;-85
2021/10/30 12:50:39;;;;;;;;;;;;;;;6.17;100.00;98408.03;5073067;28;19928;-85
2021/10/30 12:53:04;;;;;;;;;;;;;;;6.24;100.00;98408.59;5073112;28;19924;-85
2021/10/30 12:55:29;;;;;;;;;;;;;;;6.32;100.00;98398.59;5071359;28;20379;-85
2021/10/30 12:57:58;;;;;;;;;;;;;;;6.35;100.00;98404.56;5071169;28;19935;-85
2021/10/30 13:00:24;;;;;;;;;;;;;;;6.35;100.00;98396.66;5070945;28;19917;-85
2021/10/30 13:02:50;;;;;;;;;;;;;;;6.34;100.00;98399.34;5072796;28;19916;-85
2021/10/30 13:05:15;;;;;;;;;;;;;;;6.26;100.00;98402.34;5073014;28;20052;-86
2021/10/30 13:07:42;;;;;;;;;;;;;;;6.16;100.00;98395.84;5103632;28;20371;-85
2021/10/30 13:10:12;;;;;;;;;;;;;;;5.95;100.00;98401.13;5072259;28;19931;-85
2021/10/30 13:12:37;;;;;;;;;;;;;;;5.72;100.00;98398.69;5072096;28;20812;-84
2021/10/30 13:15:02;;;;;;;;;;;;;;;5.46;100.00;98403.34;5070795;28;19920;-85
2021/10/30 13:17:27;;;;;;;;;;;;;;;5.30;100.00;98402.28;5072120;28;20272;-85
2021/10/30 13:19:53;;;;;;;;;;;;;;;5.21;100.00;98396.50;5072024;28;19921;-85
2021/10/30 13:22:18;;;;;;;;;;;;;;;5.22;100.00;98403.47;5072549;28;20290;-85
2021/10/30 13:24:43;;;;;;;;;;;;;;;5.28;100.00;98400.59;5072586;28;19917;-85
2021/10/30 13:27:10;;;;;;;;;;;;;;;5.39;100.00;98404.50;5072047;28;20418;-85
2021/10/30 13:29:36;;;;;;;;;;;;;;;5.56;100.00;98401.16;5070157;28;19985;-84
2021/10/30 13:32:02;;;;;;;;;;;;;;;5.78;100.00;98401.88;5072247;28;19920;-85
2021/10/30 13:34:29;;;;;;;;;;;;;;;5.98;100.00;98394.88;5104341;28;20017;-85
2021/10/30 13:36:54;;;;;;;;;;;;;;;6.19;100.00;98398.31;5071522;28;20045;-84
2021/10/30 13:39:20;;;;;;;;;;;;;;;6.26;100.00;98390.97;5072034;28;19964;-85
2021/10/30 13:41:45;;;;;;;;;;;;;;;6.38;100.00;98390.38;5072116;28;19951;-86
2021/10/30 13:44:10;;;;;;;;;;;;;;;6.44;100.00;98391.88;5071256;28;19920;-85
2021/10/30 13:46:36;;;;;;;;;;;;;;;6.49;100.00;98384.59;5071780;28;20320;-85
2021/10/30 13:49:02;;;;;;;;;;;;;;;6.50;100.00;98381.06;5072115;28;20019;-85
2021/10/30 13:51:28;;;;;;;;;;;;;;;6.55;100.00;98379.88;5071322;28;19917;-85
2021/10/30 13:53:55;;;;;;;;;;;;;;;6.58;100.00;98384.16;5071716;28;20321;-85
2021/10/30 13:56:21;;;;;;;;;;;;;;;6.59;100.00;98377.97;5071964;28;20355;-85
2021/10/30 13:58:46;;;;;;;;;;;;;;;6.64;100.00;98381.22;5071692;28;19960;-85
2021/10/30 14:01:12;;;;;;;;;;;;;;;6.65;100.00;98382.94;5070695;28;19917;-85
2021/10/30 14:03:38;;;;;;;;;;;;;;;6.67;100.00;98377.56;5072089;28;19912;-84
2021/10/30 14:06:04;;;;;;;;;;;;;;;6.69;100.00;98384.47;5071820;28;19971;-85
2021/10/30 14:08:30;;;;;;;;;;;;;;;6.72;100.00;98368.53;5071362;28;19913;-85
2021/10/30 14:10:55;;;;;;;;;;;;;;;6.77;100.00;98373.56;5071614;28;19973;-85
2021/10/30 14:13:20;;;;;;;;;;;;;;;6.80;100.00;98383.13;5071687;28;19920;-85
2021/10/30 14:15:46;;;;;;;;;;;;;;;6.81;100.00;98372.50;5070649;28;19912;-84
2021/10/30 14:18:11;;;;;;;;;;;;;;;6.85;100.00;98381.09;5069933;28;19932;-84
2021/10/30 14:20:36;;;;;;;;;;;;;;;6.86;100.00;98383.66;5071880;28;19917;-85
2021/10/30 14:23:01;;;;;;;;;;;;;;;6.88;100.00;98380.94;5070479;28;19925;-84
2021/10/30 14:25:27;;;;;;;;;;;;;;;6.88;100.00;98386.22;5069947;28;19920;-85
2021/10/30 14:27:52;;;;;;;;;;;;;;;5.39;100.00;98386.13;5070323;28;19927;-85
2021/10/30 14:30:17;;;;;;;;;;;;;;;4.47;100.00;98398.75;5070423;28;20368;-84
2021/10/30 14:32:43;;;;;;;;;;;;;;;4.22;100.00;98390.97;5071742;28;20018;-85
2021/10/30 14:35:09;;;;;;;;;;;;;;;4.03;100.00;98391.69;5070998;28;19922;-85
2021/10/30 14:37:36;;;;;;;;;;;;;;;3.91;100.00;98394.75;5071715;28;20279;-85
2021/10/30 14:40:02;;;;;;;;;;;;;;;3.75;100.00;98392.75;5068138;28;19927;-85
2021/10/30 14:42:27;;;;;;;;;;;;;;;3.64;100.00;98394.91;5069784;28;19920;-85
2021/10/30 14:44:52;;;;;;;;;;;;;;;3.47;100.00;98397.28;5066999;28;20306;-85
2021/10/30 14:47:17;;;;;;;;;;;;;;;3.47;100.00;98405.13;5069605;28;19920;-85
2021/10/30 14:49:43;;;;;;;;;;;;;;;3.33;100.00;98410.84;5069714;28;20356;-85
2021/10/30 14:52:08;;;;;;;;;;;;;;;3.23;100.00;98407.72;5071083;28;19973;-85
2021/10/30 14:54:34;;;;;;;;;;;;;;;3.17;100.00;98405.31;5071872;28;19924;-85
2021/10/30 14:56:59;;;;;;;;;;;;;;;3.09;99.85;98409.06;5071218;28;19940;-84
2021/10/30 14:59:25;;;;;;;;;;;;;;;3.13;99.55;98414.16;5069484;28;20276;-85
2021/10/30 15:01:50;;;;;;;;;;;;;;;3.04;97.96;98420.56;5071336;28;19959;-85
2021/10/30 15:04:15;;;;;;;;;;;;;;;2.96;97.66;98422.59;5086433;28;20062;-84
2021/10/30 15:06:41;;;;;;;;;;;;;;;2.86;96.92;98422.06;5074730;28;19917;-86
2021/10/30 15:09:07;;;;;;;;;;;;;;;2.88;96.60;98426.31;5075283;28;20363;-86
2021/10/30 15:11:32;;;;;;;;;;;;;;;2.88;95.97;98426.31;5074846;28;20012;-85
2021/10/30 15:13:57;;;;;;;;;;;;;;;2.81;96.09;98422.22;5073341;28;20015;-85
2021/10/30 15:16:23;;;;;;;;;;;;;;;2.72;95.51;98419.88;5072470;28;19973;-86
2021/10/30 15:18:50;;;;;;;;;;;;;;;2.70;95.09;98430.41;5074866;28;19931;-85
2021/10/30 15:21:15;;;;;;;;;;;;;;;2.61;94.35;98428.06;5074573;28;19925;-87
2021/10/30 15:23:40;;;;;;;;;;;;;;;2.61;94.49;98422.84;5074965;28;19978;-86
2021/10/30 15:26:09;;;;;;;;;;;;;;;2.46;94.09;98429.44;5074065;28;19924;-85
2021/10/30 15:28:36;;;;;;;;;;;;;;;2.56;94.74;98430.00;5074938;28;19920;-87
2021/10/30 15:31:15;;;;;;;;;;;;;;;2.46;94.66;98418.13;5072477;28;19920;-86
2021/10/30 15:33:40;;;;;;;;;;;;;;;2.37;93.74;98424.47;5074582;28;19974;-85
2021/10/30 15:36:09;;;;;;;;;;;;;;;2.35;93.29;98427.16;5072284;28;19916;-86
2021/10/30 15:38:36;;;;;;;;;;;;;;;2.28;93.58;98430.00;5073361;28;19921;-85
2021/10/30 15:41:01;;;;;;;;;;;;;;;2.20;93.19;98426.75;5074400;28;19990;-85
2021/10/30 15:43:26;;;;;;;;;;;;;;;2.22;92.70;98425.81;5074053;28;20375;-86
2021/10/30 15:45:51;;;;;;;;;;;;;;;2.23;92.81;98430.13;5073256;28;20290;-86
2021/10/30 15:48:17;;;;;;;;;;;;;;;2.13;92.21;98436.56;5074441;28;19956;-85
2021/10/30 15:50:47;;;;;;;;;;;;;;;2.11;92.98;98427.91;5074327;28;19916;-85
2021/10/30 15:53:13;;;;;;;;;;;;;;;2.13;92.35;98433.94;5074341;28;19924;-86
2021/10/30 15:55:38;;;;;;;;;;;;;;;2.08;92.65;98441.06;5073182;28;19941;-84
2021/10/30 15:58:04;;;;;;;;;;;;;;;2.11;92.55;98430.53;5074021;28;19978;-85
2021/10/30 16:00:30;;;;;;;;;;;;;;;2.10;91.94;98427.03;5071692;28;19920;-84
2021/10/30 16:02:55;;;;;;;;;;;;;;;2.07;90.83;98431.50;5074559;28;20317;-86
2021/10/30 16:05:20;;;;;;;;;;;;;;;1.96;91.22;98434.44;5074032;28;19917;-86
2021/10/30 16:07:46;;;;;;;;;;;;;;;1.97;90.88;98444.00;5073970;28;20007;-85
2021/10/30 16:10:11;;;;;;;;;;;;;;;2.02;91.30;98439.47;5073973;28;19917;-85
2021/10/30 16:12:37;;;;;;;;;;;;;;;1.83;90.59;98449.59;5074024;28;19916;-85
2021/10/30 16:15:05;;;;;;;;;;;;;;;1.89;90.23;98449.44;5072561;28;19927;-86
2021/10/30 16:17:30;;;;;;;;;;;;;;;1.86;90.47;98446.06;5073088;28;20341;-86
2021/10/30 16:19:56;;;;;;;;;;;;;;;1.84;90.11;98451.31;5073544;28;19927;-86
2021/10/30 16:22:21;;;;;;;;;;;;;;;1.85;89.66;98457.41;5073597;28;19920;-85
2021/10/30 16:24:49;;;;;;;;;;;;;;;1.83;89.61;98461.81;5072457;28;19917;-85
2021/10/30 16:27:15;;;;;;;;;;;;;;;1.78;90.15;98467.16;5073559;28;19959;-85
2021/10/30 16:29:40;;;;;;;;;;;;;;;1.73;89.70;98476.91;5072404;28;19959;-85
2021/10/30 16:32:06;;;;;;;;;;;;;;;1.73;90.74;98475.13;5072106;28;20286;-84
2021/10/30 16:34:31;;;;;;;;;;;;;;;2.16;93.30;98471.28;5073516;28;19920;-86
2021/10/30 16:36:57;;;;;;;;;;;;;;;2.10;94.59;98468.00;5073491;28;19939;-85
2021/10/30 16:39:22;;;;;;;;;;;;;;;2.22;98.12;98479.84;5073248;28;19938;-85
2021/10/30 16:41:47;;;;;;;;;;;;;;;2.46;100.00;98483.50;5073234;28;19995;-85
2021/10/30 16:44:14;;;;;;;;;;;;;;;2.65;100.00;98478.53;5072544;28;20011;-85
2021/10/30 16:46:39;;;;;;;;;;;;;;;2.73;100.00;98479.16;5072819;28;19920;-85
2021/10/30 16:49:07;;;;;;;;;;;;;;;2.86;100.00;98487.47;5073306;28;19978;-85
2021/10/30 16:51:32;;;;;;;;;;;;;;;2.87;100.00;98489.16;5072488;28;19989;-86
2021/10/30 16:53:58;;;;;;;;;;;;;;;2.98;100.00;98494.06;5073890;28;20395;-85
2021/10/30 16:56:23;;;;;;;;;;;;;;;2.97;100.00;98489.72;5073043;28;20347;-86
2021/10/30 16:58:48;;;;;;;;;;;;;;;3.02;100.00;98499.13;5071591;28;19923;-86
2021/10/30 17:01:14;;;;;;;;;;;;;;;3.05;100.00;98506.03;5070429;28;19920;-86
2021/10/30 17:03:39;;;;;;;;;;;;;;;3.04;100.00;98499.09;5072915;28;19917;-87
2021/10/30 17:06:05;;;;;;;;;;;;;;;2.98;100.00;98504.53;5073158;28;19925;-85
2021/10/30 17:08:30;;;;;;;;;;;;;;;3.02;100.00;98503.53;5073059;28;19916;-85
2021/10/30 17:10:55;;;;;;;;;;;;;;;3.06;100.00;98506.00;5071558;28;20367;-85
2021/10/30 17:13:21;;;;;;;;;;;;;;;3.09;100.00;98510.25;5072954;28;20347;-86
2021/10/30 17:15:46;;;;;;;;;;;;;;;3.10;100.00;98509.38;5071408;28;19916;-86
2021/10/30 17:18:11;;;;;;;;;;;;;;;3.11;100.00;98510.22;5072438;28;19920;-86
2021/10/30 17:20:37;;;;;;;;;;;;;;;3.12;100.00;98506.69;5072549;28;19972;-84
2021/10/30 17:23:02;;;;;;;;;;;;;;;3.14;100.00;98510.09;5072694;28;19919;-87
2021/10/30 17:25:28;;;;;;;;;;;;;;;3.19;100.00;98522.16;5072401;28;19921;-85
2021/10/30 17:27:54;;;;;;;;;;;;;;;3.18;100.00;98528.28;5071162;28;19917;-85
2021/10/30 17:30:19;;;;;;;;;;;;;;;3.20;100.00;98528.22;5071049;28;19919;-85
2021/10/30 17:32:46;;;;;;;;;;;;;;;3.18;100.00;98530.91;5072512;28;19920;-86